Main page
METAR-TAF:

METAR-TAF

Airports :

Georgetown Municipal Airport

Georgetown, Texas, United States

latitude: 30-41N, longitude: 097-41W, elevation: 787 ft

Current weather observation

The report was made 39 minutes ago, at 18:56 UTC
Wind 7 mph from the East
Temperature 91°F
Humidity 44%
Pressure 29.99 in. Hg
Visibility: 10 miles
Few clouds at a height of 4900 ft
Scattered clouds at a height of 6000 ft

METAR: KGTU 141856Z 09006KT 10SM FEW049 SCT060 33/19 A2999 RMK AO2 SLP147 T03280194

Time: 14:35 (19:35 UTC)


TAF: missing

Weather observations and forecasts of more than 4000 airports (METAR and TAF reports).

The available stations are represented by yellow and red dots on the map.

Hover mouse over dot to see the name of the station.

Then click to see weather observations and forecasts.

To change the map : click on the green buttons with a black cross to zoom in, on the green button with a dash to zoom out, or on the green arrows for adjacent maps.


METAR-TAF: